Time;durP1;ratioP1;P1;durP2;ratioP2;P2;SDS_P1;SDS_P2;PMS_P1;PMS_P2;Temp;Humidity;BMP_temperature;BMP_pressure;BME280_temperature;BME280_humidity;BME280_pressure;Samples;Min_cycle;Max_cycle;Signal;HPM_P1;HPM_P2
2023/05/23 00:01:08;;;;;;;1999.90;999.90;;;23.30;81.60;;;;;;5090258;28;20048;-69
2023/05/23 00:03:36;;;;;;;1999.90;999.90;;;23.60;79.40;;;;;;5066845;28;20031;-69
2023/05/23 00:06:07;;;;;;;1999.90;999.90;;;23.60;80.40;;;;;;5093515;28;20024;-69
2023/05/23 00:08:34;;;;;;;1999.90;999.90;;;23.90;78.60;;;;;;5093907;28;20501;-70
2023/05/23 00:11:01;;;;;;;1999.90;999.90;;;23.80;78.70;;;;;;5085486;28;20497;-68
2023/05/23 00:13:33;;;;;;;1999.90;999.90;;;24.10;78.30;;;;;;5090797;28;20130;-70
2023/05/23 00:16:01;;;;;;;1999.90;999.90;;;24.70;76.60;;;;;;5088620;28;20106;-70
2023/05/23 00:18:29;;;;;;;1999.90;999.90;;;25.00;77.20;;;;;;5093927;28;20036;-71
2023/05/23 00:20:58;;;;;;;1999.90;999.90;;;24.90;76.90;;;;;;5071779;28;20113;-70
2023/05/23 00:23:28;;;;;;;1999.90;999.90;;;24.90;76.30;;;;;;5069227;28;20032;-71
2023/05/23 00:25:57;;;;;;;1999.90;999.90;;;25.30;76.40;;;;;;5085949;28;20506;-72
2023/05/23 00:28:25;;;;;;;1999.90;999.90;;;25.80;73.90;;;;;;5086209;28;20062;-70
2023/05/23 00:30:55;;;;;;;1999.90;999.90;;;25.90;73.80;;;;;;5091178;28;20028;-70
2023/05/23 00:33:22;;;;;;;1999.90;999.90;;;26.00;72.40;;;;;;5086872;28;20044;-70
2023/05/23 00:35:50;;;;;;;1999.90;999.90;;;25.80;73.80;;;;;;5084135;28;20019;-71
2023/05/23 00:38:18;;;;;;;1999.90;999.90;;;25.90;73.60;;;;;;5089051;28;20908;-69
2023/05/23 00:40:47;;;;;;;1999.90;999.90;;;26.20;73.10;;;;;;5071667;28;20028;-69
2023/05/23 00:43:16;;;;;;;1999.90;999.90;;;26.70;71.80;;;;;;5079186;28;20029;-69
2023/05/23 00:45:43;;;;;;;1999.90;999.90;;;26.70;71.50;;;;;;5064208;28;20024;-70
2023/05/23 00:48:15;;;;;;;1999.90;999.90;;;26.80;70.50;;;;;;5076130;28;20032;-71
2023/05/23 00:50:43;;;;;;;1999.90;999.90;;;26.20;71.30;;;;;;5086671;28;20016;-71
2023/05/23 00:53:10;;;;;;;1999.90;999.90;;;26.00;72.00;;;;;;5095186;28;20132;-72
2023/05/23 00:55:38;;;;;;;1999.90;999.90;;;25.80;71.40;;;;;;5085660;28;20060;-71
2023/05/23 00:58:07;;;;;;;1999.90;999.90;;;25.90;71.50;;;;;;5093130;28;20138;-70
2023/05/23 01:00:37;;;;;;;1999.90;999.90;;;26.20;69.90;;;;;;5085023;28;20520;-69
2023/05/23 01:03:05;;;;;;;1999.90;999.90;;;26.20;71.40;;;;;;5086978;28;20046;-70
2023/05/23 01:05:36;;;;;;;1999.90;999.90;;;26.60;70.30;;;;;;5070525;28;20409;-70
2023/05/23 01:08:07;;;;;;;1999.90;999.90;;;26.80;69.50;;;;;;5089260;28;22244;-70
2023/05/23 01:10:34;;;;;;;1999.90;999.90;;;27.10;69.50;;;;;;5085498;28;20035;-70
2023/05/23 01:13:20;;;;;;;1999.90;999.90;;;27.10;69.50;;;;;;5091361;28;20051;-69
2023/05/23 01:16:29;;;;;;;1999.90;999.90;;;27.20;70.00;;;;;;5091817;28;20035;-69
2023/05/23 01:19:37;;;;;;;1999.90;999.90;;;27.50;69.30;;;;;;5082857;28;20031;-71
2023/05/23 01:22:23;;;;;;;1999.90;999.90;;;27.70;69.20;;;;;;5051814;28;20146;-73
2023/05/23 01:24:56;;;;;;;1999.90;999.90;;;28.00;69.70;;;;;;5070882;28;20065;-72
2023/05/23 01:27:57;;;;;;;1999.90;999.90;;;28.00;68.00;;;;;;5097323;28;20124;-72
2023/05/23 01:30:30;;;;;;;1999.90;999.90;;;28.60;66.80;;;;;;5013821;28;20045;-72
2023/05/23 01:33:01;;;;;;;1999.90;999.90;;;28.80;65.20;;;;;;5092286;28;20067;-69
2023/05/23 01:35:29;;;;;;;1999.90;999.90;;;28.60;65.30;;;;;;5084474;28;20050;-71
2023/05/23 01:37:57;;;;;;;1999.90;999.90;;;28.50;65.80;;;;;;5095782;28;20475;-71
2023/05/23 01:40:26;;;;;;;1999.90;999.90;;;28.70;66.10;;;;;;5091587;28;20043;-71
2023/05/23 01:42:56;;;;;;;1999.90;999.90;;;28.80;64.50;;;;;;5092959;28;20020;-72
2023/05/23 01:45:27;;;;;;;1999.90;999.90;;;28.70;65.10;;;;;;5075393;28;20140;-72
2023/05/23 01:47:57;;;;;;;1999.90;999.90;;;29.00;66.20;;;;;;5061771;28;20032;-72
2023/05/23 01:50:31;;;;;;;1999.90;999.90;;;29.20;64.80;;;;;;5078414;28;20429;-70
2023/05/23 01:53:00;;;;;;;1999.90;999.90;;;29.30;64.30;;;;;;5089901;28;20032;-71
2023/05/23 01:55:28;;;;;;;1999.90;999.90;;;29.30;63.60;;;;;;5074777;28;20035;-70
2023/05/23 01:57:59;;;;;;;1999.90;999.90;;;29.20;62.30;;;;;;5087265;28;20028;-71
2023/05/23 02:00:27;;;;;;;1999.90;999.90;;;29.20;62.40;;;;;;5080275;28;20097;-70
2023/05/23 02:02:54;;;;;;;1999.90;999.90;;;29.20;62.00;;;;;;5084272;28;20436;-73
2023/05/23 02:05:21;;;;;;;1999.90;999.90;;;29.00;62.20;;;;;;5083734;28;20028;-72
2023/05/23 02:07:49;;;;;;;1999.90;999.90;;;28.60;62.00;;;;;;5072505;28;20059;-70
2023/05/23 02:10:16;;;;;;;1999.90;999.90;;;28.30;62.90;;;;;;5080671;28;20028;-69
2023/05/23 02:12:44;;;;;;;1999.90;999.90;;;28.40;63.20;;;;;;5088243;28;20121;-69
2023/05/23 02:15:11;;;;;;;1999.90;999.90;;;28.40;62.50;;;;;;5064620;28;20028;-69
2023/05/23 02:17:40;;;;;;;1999.90;999.90;;;28.70;64.30;;;;;;5094168;28;20027;-69
2023/05/23 02:20:09;;;;;;;1999.90;999.90;;;28.70;62.80;;;;;;5070431;28;21387;-68
2023/05/23 02:22:37;;;;;;;1999.90;999.90;;;28.90;63.10;;;;;;5087540;28;20106;-69
2023/05/23 02:25:05;;;;;;;1999.90;999.90;;;28.70;62.90;;;;;;5084345;28;20031;-68
2023/05/23 02:27:33;;;;;;;1999.90;999.90;;;28.40;62.70;;;;;;5085648;28;20040;-68
2023/05/23 02:30:00;;;;;;;1999.90;999.90;;;28.20;62.20;;;;;;5086143;28;20028;-68
2023/05/23 02:32:28;;;;;;;1999.90;999.90;;;28.30;63.20;;;;;;5089461;28;20032;-68
2023/05/23 02:34:57;;;;;;;1999.90;999.90;;;28.20;62.50;;;;;;5088503;28;20028;-70
2023/05/23 02:37:24;;;;;;;1999.90;999.90;;;28.20;62.70;;;;;;5092850;28;20128;-69
2023/05/23 02:39:51;;;;;;;1999.90;999.90;;;28.10;62.20;;;;;;5094469;28;20016;-70
2023/05/23 02:42:19;;;;;;;1999.90;999.90;;;27.70;61.50;;;;;;5079786;28;20032;-68
2023/05/23 02:44:46;;;;;;;1999.90;999.90;;;27.30;62.50;;;;;;5078882;28;20024;-70
2023/05/23 02:47:13;;;;;;;1999.90;999.90;;;27.10;61.70;;;;;;5088991;28;20024;-73
2023/05/23 02:49:41;;;;;;;1999.90;999.90;;;27.00;63.20;;;;;;5090585;28;20020;-70
2023/05/23 02:52:08;;;;;;;1999.90;999.90;;;27.00;64.70;;;;;;5090419;28;20032;-70
2023/05/23 02:54:35;;;;;;;1999.90;999.90;;;27.00;64.60;;;;;;5093548;28;20603;-69
2023/05/23 02:57:03;;;;;;;1999.90;999.90;;;26.90;63.80;;;;;;5082647;28;20020;-70
2023/05/23 02:59:30;;;;;;;1999.90;999.90;;;26.70;63.60;;;;;;5090451;28;20035;-71
2023/05/23 03:01:59;;;;;;;1999.90;999.90;;;26.40;64.00;;;;;;5074350;28;20056;-68
2023/05/23 03:04:26;;;;;;;1999.90;999.90;;;26.10;62.90;;;;;;5082696;28;20039;-68
2023/05/23 03:06:54;;;;;;;1999.90;999.90;;;25.80;63.00;;;;;;5080415;28;20149;-68
2023/05/23 03:09:22;;;;;;;1999.90;999.90;;;25.60;63.40;;;;;;5068037;28;20024;-69
2023/05/23 03:11:50;;;;;;;1999.90;999.90;;;25.40;62.90;;;;;;5082129;28;20039;-68
2023/05/23 03:14:17;;;;;;;1999.90;999.90;;;25.20;63.30;;;;;;5078162;28;20100;-69
2023/05/23 03:16:44;;;;;;;1999.90;999.90;;;25.10;63.70;;;;;;5083437;28;20046;-69
2023/05/23 03:19:12;;;;;;;1999.90;999.90;;;25.00;64.70;;;;;;5090547;28;20031;-70
2023/05/23 03:21:39;;;;;;;1999.90;999.90;;;24.80;63.00;;;;;;5077318;28;20036;-69
2023/05/23 03:24:07;;;;;;;1999.90;999.90;;;24.30;65.60;;;;;;5077702;28;20562;-70
2023/05/23 03:26:35;;;;;;;1999.90;999.90;;;23.90;65.40;;;;;;5081579;28;20027;-70
2023/05/23 03:29:02;;;;;;;1999.90;999.90;;;23.40;65.80;;;;;;5085670;28;20036;-69
2023/05/23 03:31:29;;;;;;;1999.90;999.90;;;23.00;65.90;;;;;;5080051;28;20081;-70
2023/05/23 03:33:57;;;;;;;1999.90;999.90;;;22.70;65.20;;;;;;5064471;28;20431;-68
2023/05/23 03:36:24;;;;;;;1999.90;999.90;;;22.60;66.60;;;;;;5094953;28;20122;-69
2023/05/23 03:38:53;;;;;;;1999.90;999.90;;;22.50;66.40;;;;;;5092401;28;20023;-71
2023/05/23 03:41:20;;;;;;;1999.90;999.90;;;22.20;67.10;;;;;;5079635;28;20847;-69
2023/05/23 03:43:47;;;;;;;1999.90;999.90;;;22.00;67.20;;;;;;5089475;28;20035;-70
2023/05/23 03:46:22;;;;;;;1999.90;999.90;;;21.70;67.50;;;;;;5084632;28;20027;-68
2023/05/23 03:48:50;;;;;;;1999.90;999.90;;;21.40;67.50;;;;;;5087920;28;20366;-69
2023/05/23 03:51:17;;;;;;;1999.90;999.90;;;21.30;66.20;;;;;;5077878;28;20023;-70
2023/05/23 03:53:45;;;;;;;1999.90;999.90;;;21.00;65.10;;;;;;5088244;28;20078;-68
2023/05/23 03:56:12;;;;;;;1999.90;999.90;;;20.70;66.00;;;;;;5079724;28;20024;-68
2023/05/23 03:58:39;;;;;;;1999.90;999.90;;;20.50;66.60;;;;;;5088965;28;20123;-71
2023/05/23 04:01:08;;;;;;;1999.90;999.90;;;20.30;69.40;;;;;;5082206;28;20102;-70
2023/05/23 04:03:35;;;;;;;1999.90;999.90;;;20.30;67.70;;;;;;5079069;28;20490;-68
2023/05/23 04:06:02;;;;;;;1999.90;999.90;;;20.20;67.60;;;;;;5082092;28;20074;-68
2023/05/23 04:08:32;;;;;;;1999.90;999.90;;;20.20;66.90;;;;;;5083042;28;20032;-69
2023/05/23 04:11:03;;;;;;;1999.90;999.90;;;20.20;66.50;;;;;;5078910;28;20028;-68
2023/05/23 04:13:30;;;;;;;1999.90;999.90;;;20.10;66.10;;;;;;5082014;28;20413;-69
2023/05/23 04:16:04;;;;;;;1999.90;999.90;;;19.90;65.50;;;;;;5078355;28;20032;-70
2023/05/23 04:18:37;;;;;;;1999.90;999.90;;;19.80;66.00;;;;;;5078942;28;20058;-69
2023/05/23 04:21:05;;;;;;;1999.90;999.90;;;19.70;67.30;;;;;;5077439;28;20051;-70
2023/05/23 04:23:33;;;;;;;1999.90;999.90;;;19.70;67.10;;;;;;5082199;28;20024;-68
2023/05/23 04:26:00;;;;;;;1999.90;999.90;;;19.60;69.20;;;;;;5074746;28;20030;-69
2023/05/23 04:28:27;;;;;;;1999.90;999.90;;;19.60;69.10;;;;;;5086653;28;20513;-69
2023/05/23 04:30:55;;;;;;;1999.90;999.90;;;19.50;67.80;;;;;;5077375;28;20107;-69
2023/05/23 04:33:24;;;;;;;1999.90;999.90;;;19.50;69.00;;;;;;5083684;28;20464;-68
2023/05/23 04:35:52;;;;;;;1999.90;999.90;;;19.50;68.70;;;;;;5086771;28;20040;-69
2023/05/23 04:38:20;;;;;;;1999.90;999.90;;;19.30;68.80;;;;;;5078387;28;20489;-69
2023/05/23 04:40:49;;;;;;;1999.90;999.90;;;19.20;68.80;;;;;;5081719;28;20043;-69
2023/05/23 04:43:18;;;;;;;1999.90;999.90;;;19.10;69.10;;;;;;5073300;28;20394;-70
2023/05/23 04:45:48;;;;;;;1999.90;999.90;;;19.10;69.60;;;;;;5077094;28;20082;-68
2023/05/23 04:48:16;;;;;;;1999.90;999.90;;;18.90;70.00;;;;;;5088250;28;20038;-69
2023/05/23 04:50:46;;;;;;;1999.90;999.90;;;18.90;70.50;;;;;;5089317;28;20449;-70
2023/05/23 04:53:14;;;;;;;1999.90;999.90;;;18.90;69.40;;;;;;5088251;28;20035;-69
2023/05/23 04:55:41;;;;;;;1999.90;999.90;;;18.90;69.30;;;;;;5088842;28;20012;-69
2023/05/23 04:58:09;;;;;;;1999.90;999.90;;;18.90;69.70;;;;;;5094973;28;20046;-68
2023/05/23 05:00:36;;;;;;;1999.90;999.90;;;19.00;70.30;;;;;;5083120;28;21043;-70
2023/05/23 05:03:03;;;;;;;1999.90;999.90;;;18.90;70.70;;;;;;5090905;28;20028;-69
2023/05/23 05:05:31;;;;;;;1999.90;999.90;;;18.90;69.70;;;;;;5083380;28;20415;-69
2023/05/23 05:07:58;;;;;;;1999.90;999.90;;;18.90;69.60;;;;;;5087118;28;20354;-69
2023/05/23 05:10:26;;;;;;;1999.90;999.90;;;18.80;69.20;;;;;;5085374;28;20028;-70
2023/05/23 05:12:53;;;;;;;1999.90;999.90;;;18.80;69.70;;;;;;5088300;28;20040;-69
2023/05/23 05:15:20;;;;;;;1999.90;999.90;;;18.80;70.70;;;;;;5085905;28;20588;-69
2023/05/23 05:17:47;;;;;;;1999.90;999.90;;;18.80;72.10;;;;;;5093629;28;20031;-68
2023/05/23 05:20:16;;;;;;;1999.90;999.90;;;18.80;71.90;;;;;;5084466;28;20024;-69
2023/05/23 05:22:43;;;;;;;1999.90;999.90;;;18.70;71.80;;;;;;5092026;28;20446;-68
2023/05/23 05:25:11;;;;;;;1999.90;999.90;;;18.70;72.30;;;;;;5086558;28;20028;-67
2023/05/23 05:27:40;;;;;;;1999.90;999.90;;;18.70;72.80;;;;;;5090370;28;20126;-68
2023/05/23 05:30:09;;;;;;;1999.90;999.90;;;18.70;72.70;;;;;;5087531;28;20134;-70
2023/05/23 05:32:36;;;;;;;1999.90;999.90;;;18.70;72.90;;;;;;5089086;28;20119;-69
2023/05/23 05:35:04;;;;;;;1999.90;999.90;;;18.70;73.20;;;;;;5080461;28;20444;-67
2023/05/23 05:37:31;;;;;;;1999.90;999.90;;;18.70;73.30;;;;;;5093012;28;20458;-68
2023/05/23 05:40:05;;;;;;;1999.90;999.90;;;18.70;73.60;;;;;;5078633;28;20028;-69
2023/05/23 05:42:32;;;;;;;1999.90;999.90;;;18.70;73.40;;;;;;5090882;28;20019;-69
2023/05/23 05:45:00;;;;;;;1999.90;999.90;;;18.70;73.50;;;;;;5090962;28;20036;-68
2023/05/23 05:47:28;;;;;;;1999.90;999.90;;;18.70;73.90;;;;;;5090322;28;20107;-69
2023/05/23 05:49:55;;;;;;;1999.90;999.90;;;18.70;74.00;;;;;;5071403;28;22213;-68
2023/05/23 05:52:23;;;;;;;1999.90;999.90;;;18.80;74.30;;;;;;5091380;28;20042;-69
2023/05/23 05:54:50;;;;;;;1999.90;999.90;;;18.80;74.30;;;;;;5084951;28;20058;-69
2023/05/23 05:57:17;;;;;;;1999.90;999.90;;;18.90;74.70;;;;;;5088602;28;20552;-71
2023/05/23 05:59:46;;;;;;;1999.90;999.90;;;18.90;74.50;;;;;;5089605;28;20401;-71
2023/05/23 06:02:13;;;;;;;1999.90;999.90;;;18.90;74.50;;;;;;5086150;28;20044;-70
2023/05/23 06:04:40;;;;;;;1999.90;999.90;;;18.90;74.10;;;;;;5084031;28;20574;-69
2023/05/23 06:07:08;;;;;;;1999.90;999.90;;;18.90;74.20;;;;;;5094521;28;20038;-69
2023/05/23 06:09:35;;;;;;;1999.90;999.90;;;19.00;74.30;;;;;;5084905;28;20110;-70
2023/05/23 06:12:02;;;;;;;1999.90;999.90;;;19.10;73.30;;;;;;5082988;28;20029;-70
2023/05/23 06:14:30;;;;;;;1999.90;999.90;;;19.10;72.60;;;;;;5091556;28;20026;-68
2023/05/23 06:16:57;;;;;;;1999.90;999.90;;;19.20;73.10;;;;;;5105189;28;20385;-69
2023/05/23 06:19:25;;;;;;;1999.90;999.90;;;19.10;73.80;;;;;;5089731;28;20031;-71
2023/05/23 06:21:52;;;;;;;1999.90;999.90;;;19.20;74.30;;;;;;5082157;28;20543;-68
2023/05/23 06:24:19;;;;;;;1999.90;999.90;;;19.10;73.50;;;;;;5089694;28;20024;-70
2023/05/23 06:26:47;;;;;;;1999.90;999.90;;;19.00;73.30;;;;;;5080834;28;20040;-70
2023/05/23 06:29:14;;;;;;;1999.90;999.90;;;18.90;73.60;;;;;;5086897;28;20020;-68
2023/05/23 06:31:41;;;;;;;1999.90;999.90;;;18.80;73.50;;;;;;5084819;28;20028;-70
2023/05/23 06:34:09;;;;;;;1999.90;999.90;;;18.70;73.50;;;;;;5083646;28;20097;-70
2023/05/23 06:36:36;;;;;;;1999.90;999.90;;;18.50;74.50;;;;;;5090447;28;20424;-69
2023/05/23 06:39:03;;;;;;;1999.90;999.90;;;18.40;75.00;;;;;;5088999;28;20115;-69
2023/05/23 06:41:30;;;;;;;1999.90;999.90;;;18.10;74.90;;;;;;5088160;28;20050;-70
2023/05/23 06:43:58;;;;;;;1999.90;999.90;;;17.90;75.60;;;;;;5075998;28;20066;-69
2023/05/23 06:46:25;;;;;;;1999.90;999.90;;;17.70;76.90;;;;;;5093170;28;20431;-70
2023/05/23 06:48:52;;;;;;;1999.90;999.90;;;17.50;78.00;;;;;;5095655;28;20020;-69
2023/05/23 06:51:20;;;;;;;1999.90;999.90;;;17.30;78.70;;;;;;5091294;28;20478;-70
2023/05/23 06:53:47;;;;;;;1999.90;999.90;;;17.20;79.10;;;;;;5096454;28;20035;-70
2023/05/23 06:56:15;;;;;;;1999.90;999.90;;;17.00;79.80;;;;;;5095653;28;20085;-69
2023/05/23 06:58:42;;;;;;;1999.90;999.90;;;16.90;81.20;;;;;;5089905;28;20120;-68
2023/05/23 07:01:09;;;;;;;1999.90;999.90;;;16.70;82.60;;;;;;5093036;28;20075;-70
2023/05/23 07:03:40;;;;;;;1999.90;999.90;;;16.60;83.50;;;;;;5098589;28;20032;-70
2023/05/23 07:06:08;;;;;;;1999.90;999.90;;;16.40;85.10;;;;;;5090352;28;20032;-68
2023/05/23 07:08:35;;;;;;;1999.90;999.90;;;16.30;85.80;;;;;;5096014;28;20801;-68
2023/05/23 07:11:03;;;;;;;1999.90;999.90;;;16.10;85.90;;;;;;5093566;28;20032;-68
2023/05/23 07:13:30;;;;;;;1999.90;999.90;;;16.00;87.10;;;;;;5074958;28;20397;-70
2023/05/23 07:15:58;;;;;;;1999.90;999.90;;;15.80;87.30;;;;;;5087061;28;20021;-68
2023/05/23 07:18:25;;;;;;;1999.90;999.90;;;15.70;88.80;;;;;;5096341;28;20028;-70
2023/05/23 07:20:52;;;;;;;1999.90;999.90;;;15.50;88.80;;;;;;5081757;28;20472;-71
2023/05/23 07:23:20;;;;;;;1999.90;999.90;;;15.40;90.20;;;;;;5096230;28;20096;-69
2023/05/23 07:25:47;;;;;;;1999.90;999.90;;;15.20;90.90;;;;;;5066738;28;20029;-69
2023/05/23 07:28:14;;;;;;;1999.90;999.90;;;15.10;90.50;;;;;;5099393;28;20375;-70
2023/05/23 07:30:42;;;;;;;1999.90;999.90;;;15.00;91.60;;;;;;5086981;28;20023;-71
2023/05/23 07:33:10;;;;;;;1999.90;999.90;;;14.90;91.00;;;;;;5096497;28;20031;-71
2023/05/23 07:35:37;;;;;;;1999.90;999.90;;;14.70;91.00;;;;;;5095703;28;20027;-71
2023/05/23 07:38:05;;;;;;;1999.90;999.90;;;14.60;91.30;;;;;;5094085;28;20031;-69
2023/05/23 07:40:33;;;;;;;1999.90;999.90;;;14.60;92.00;;;;;;5081283;28;20088;-69
2023/05/23 07:43:00;;;;;;;1999.90;999.90;;;14.50;92.30;;;;;;5091884;28;20051;-70
2023/05/23 07:45:27;;;;;;;1999.90;999.90;;;14.40;92.70;;;;;;5081344;28;22374;-68
2023/05/23 07:47:54;;;;;;;1999.90;999.90;;;14.30;92.90;;;;;;5089194;28;20030;-71
2023/05/23 07:50:22;;;;;;;1999.90;999.90;;;14.20;93.20;;;;;;5090038;28;20030;-70
2023/05/23 07:52:50;;;;;;;1999.90;999.90;;;14.20;93.70;;;;;;5097808;28;20417;-71
2023/05/23 07:55:18;;;;;;;1999.90;999.90;;;14.10;94.20;;;;;;5089951;28;20027;-70
2023/05/23 07:57:45;;;;;;;1999.90;999.90;;;14.10;94.60;;;;;;5081823;28;20032;-69
2023/05/23 08:00:13;;;;;;;1999.90;999.90;;;14.00;94.80;;;;;;5093753;28;20443;-70
2023/05/23 08:02:41;;;;;;;1999.90;999.90;;;14.00;95.30;;;;;;5087860;28;20038;-72
2023/05/23 08:05:08;;;;;;;1999.90;999.90;;;14.00;95.80;;;;;;5088185;28;20070;-70
2023/05/23 08:07:36;;;;;;;1999.90;999.90;;;13.90;96.40;;;;;;5088837;28;20031;-70
2023/05/23 08:10:03;;;;;;;1999.90;999.90;;;13.90;96.60;;;;;;5080669;28;20032;-70
2023/05/23 08:12:31;;;;;;;1999.90;999.90;;;13.90;96.90;;;;;;5091470;28;20028;-70
2023/05/23 08:14:58;;;;;;;1999.90;999.90;;;13.80;97.40;;;;;;5090972;28;20540;-70
2023/05/23 08:17:26;;;;;;;1999.90;999.90;;;13.70;97.60;;;;;;5095082;28;20105;-71
2023/05/23 08:19:54;;;;;;;1999.90;999.90;;;13.60;97.90;;;;;;5090298;28;20031;-71
2023/05/23 08:22:21;;;;;;;1999.90;999.90;;;13.50;98.60;;;;;;5085542;28;20108;-70
2023/05/23 08:24:48;;;;;;;1999.90;999.90;;;13.40;99.00;;;;;;5089869;28;20177;-70
2023/05/23 08:27:16;;;;;;;1999.90;999.90;;;13.30;99.40;;;;;;5091971;28;20028;-70
2023/05/23 08:29:43;;;;;;;1999.90;999.90;;;13.30;99.90;;;;;;5102346;28;20508;-70
2023/05/23 08:32:10;;;;;;;1999.90;999.90;;;13.30;99.90;;;;;;5085490;28;20040;-70
2023/05/23 08:34:37;;;;;;;1999.90;999.90;;;13.20;99.90;;;;;;5105424;28;20028;-70
2023/05/23 08:37:15;;;;;;;1999.90;999.90;;;13.20;99.90;;;;;;5089131;28;20067;-72
2023/05/23 08:39:42;;;;;;;1999.90;999.90;;;13.10;99.90;;;;;;5064328;28;20120;-70
2023/05/23 08:42:10;;;;;;;1999.90;999.90;;;13.10;99.90;;;;;;5088335;28;20024;-70
2023/05/23 08:44:39;;;;;;;1999.90;999.90;;;13.10;99.90;;;;;;5074523;28;20397;-70
2023/05/23 08:47:09;;;;;;;1999.90;999.90;;;13.10;99.90;;;;;;5091617;28;20481;-71
2023/05/23 08:49:38;;;;;;;1999.90;999.90;;;13.10;99.90;;;;;;5089765;28;20031;-71
2023/05/23 08:52:09;;;;;;;1999.90;999.90;;;13.00;99.90;;;;;;5108255;28;20086;-71
2023/05/23 08:54:37;;;;;;;1999.90;999.90;;;12.90;99.90;;;;;;5095838;28;20019;-70
2023/05/23 08:57:05;;;;;;;1999.90;999.90;;;12.90;99.90;;;;;;5093618;28;20116;-70
2023/05/23 08:59:34;;;;;;;1999.90;999.90;;;12.80;99.90;;;;;;5094026;28;20028;-69
2023/05/23 09:02:03;;;;;;;1999.90;999.90;;;12.70;99.90;;;;;;5090881;28;20129;-71
2023/05/23 09:04:31;;;;;;;1999.90;999.90;;;12.60;99.90;;;;;;5105327;28;20568;-70
2023/05/23 09:06:59;;;;;;;1999.90;999.90;;;12.50;99.90;;;;;;5092635;28;20352;-70
2023/05/23 09:09:26;;;;;;;1999.90;999.90;;;12.40;99.90;;;;;;5077411;28;20028;-70
2023/05/23 09:11:58;;;;;;;1999.90;999.90;;;12.30;99.90;;;;;;5076019;28;20027;-71
2023/05/23 09:14:29;;;;;;;1999.90;999.90;;;12.30;99.90;;;;;;5087790;28;20111;-70
2023/05/23 09:17:04;;;;;;;1999.90;999.90;;;12.30;99.90;;;;;;5087878;28;20051;-71
2023/05/23 09:19:32;;;;;;;1999.90;999.90;;;12.20;99.90;;;;;;5092603;28;20512;-71
2023/05/23 09:22:01;;;;;;;1999.90;999.90;;;12.20;99.90;;;;;;5088174;28;20055;-71
2023/05/23 09:24:36;;;;;;;1999.90;999.90;;;12.20;99.90;;;;;;5085021;28;20393;-72
2023/05/23 09:27:06;;;;;;;1999.90;999.90;;;12.10;99.90;;;;;;5092345;28;20063;-71
2023/05/23 09:29:38;;;;;;;1999.90;999.90;;;12.00;99.90;;;;;;5074596;28;20811;-69
2023/05/23 09:32:17;;;;;;;1999.90;999.90;;;11.90;99.90;;;;;;5095231;28;20112;-70
2023/05/23 09:34:58;;;;;;;1999.90;999.90;;;11.90;99.90;;;;;;5066585;28;20039;-69
2023/05/23 09:37:44;;;;;;;1999.90;999.90;;;11.80;99.90;;;;;;5093804;28;20036;-69
2023/05/23 09:40:14;;;;;;;1999.90;999.90;;;11.70;99.90;;;;;;5089750;28;20465;-69
2023/05/23 09:42:47;;;;;;;1999.90;999.90;;;11.60;99.90;;;;;;5087839;28;20111;-70
2023/05/23 09:45:16;;;;;;;1999.90;999.90;;;11.50;99.90;;;;;;5082323;28;20378;-71
2023/05/23 09:47:52;;;;;;;1999.90;999.90;;;11.50;99.90;;;;;;5089910;28;20028;-70
2023/05/23 09:50:20;;;;;;;1999.90;999.90;;;11.40;99.90;;;;;;5086189;28;20474;-70
2023/05/23 09:52:48;;;;;;;1999.90;999.90;;;11.30;99.90;;;;;;5084153;28;20137;-68
2023/05/23 09:55:15;;;;;;;1999.90;999.90;;;11.30;99.90;;;;;;5082845;28;20136;-70
2023/05/23 09:57:44;;;;;;;1999.90;999.90;;;11.20;99.90;;;;;;5091501;28;20023;-70
2023/05/23 10:00:15;;;;;;;1999.90;999.90;;;11.10;99.90;;;;;;5087570;28;20044;-70
2023/05/23 10:02:58;;;;;;;1999.90;999.90;;;11.10;99.90;;;;;;5091251;28;20478;-69
2023/05/23 10:05:35;;;;;;;1999.90;999.90;;;11.00;99.90;;;;;;5082183;28;20027;-69
2023/05/23 10:08:10;;;;;;;1999.90;999.90;;;11.00;99.90;;;;;;5089234;28;20052;-69
2023/05/23 10:10:57;;;;;;;1999.90;999.90;;;11.00;99.90;;;;;;5083457;28;20024;-70
2023/05/23 10:13:28;;;;;;;1999.90;999.90;;;11.00;99.90;;;;;;5088987;28;20051;-71
2023/05/23 10:16:06;;;;;;;1999.90;999.90;;;10.90;99.90;;;;;;5085037;28;20127;-71
2023/05/23 10:18:42;;;;;;;1999.90;999.90;;;10.90;99.90;;;;;;5082737;28;20028;-69
2023/05/23 10:21:14;;;;;;;1999.90;999.90;;;10.80;99.90;;;;;;5088105;28;20077;-69
2023/05/23 10:23:46;;;;;;;1999.90;999.90;;;10.80;99.90;;;;;;5096580;28;20142;-70
2023/05/23 10:26:23;;;;;;;1999.90;999.90;;;10.70;99.90;;;;;;5079511;28;20028;-71
2023/05/23 10:28:51;;;;;;;1999.90;999.90;;;10.70;99.90;;;;;;5081427;28;20024;-70
2023/05/23 10:31:20;;;;;;;1999.90;999.90;;;10.60;99.90;;;;;;5091442;28;20478;-70
2023/05/23 10:34:04;;;;;;;1999.90;999.90;;;10.50;99.90;;;;;;5092822;28;20048;-68
2023/05/23 10:36:52;;;;;;;1999.90;999.90;;;10.40;99.90;;;;;;5090341;28;20103;-70
2023/05/23 10:39:56;;;;;;;1999.90;999.90;;;10.40;99.90;;;;;;5091953;28;20031;-69
2023/05/23 10:42:49;;;;;;;1999.90;999.90;;;10.40;99.90;;;;;;5084695;28;20059;-70
2023/05/23 10:45:21;;;;;;;1999.90;999.90;;;10.40;99.90;;;;;;5086553;28;21096;-70
2023/05/23 10:47:51;;;;;;;1999.90;999.90;;;10.40;99.90;;;;;;5088684;28;20030;-71
2023/05/23 10:50:32;;;;;;;1999.90;999.90;;;10.40;99.90;;;;;;5086606;28;20032;-71
2023/05/23 10:53:04;;;;;;;1999.90;999.90;;;10.40;99.90;;;;;;5093281;28;20040;-70
2023/05/23 10:55:33;;;;;;;1999.90;999.90;;;10.40;99.90;;;;;;5086993;28;20080;-71
2023/05/23 10:58:21;;;;;;;1999.90;999.90;;;10.40;99.90;;;;;;5066816;28;20364;-71
2023/05/23 11:00:56;;;;;;;1999.90;999.90;;;10.40;99.90;;;;;;5086584;28;20043;-70
2023/05/23 11:03:46;;;;;;;1999.90;999.90;;;10.40;99.90;;;;;;5090846;28;20514;-69
2023/05/23 11:06:44;;;;;;;1999.90;999.90;;;10.30;99.90;;;;;;5076286;28;20097;-69
2023/05/23 11:09:12;;;;;;;1999.90;999.90;;;10.30;99.90;;;;;;5091127;28;20028;-69
2023/05/23 11:11:51;;;;;;;1999.90;999.90;;;10.20;99.90;;;;;;5092967;28;21393;-69
2023/05/23 11:14:20;;;;;;;1999.90;999.90;;;10.20;99.90;;;;;;5079943;28;20040;-70
2023/05/23 11:16:48;;;;;;;1999.90;999.90;;;10.20;99.90;;;;;;5080284;28;20024;-70
2023/05/23 11:19:24;;;;;;;1999.90;999.90;;;10.10;99.90;;;;;;5093267;28;20083;-70
2023/05/23 11:22:01;;;;;;;1999.90;999.90;;;10.10;99.90;;;;;;5087570;28;20020;-69
2023/05/23 11:24:49;;;;;;;1999.90;999.90;;;10.00;99.90;;;;;;5085133;28;20107;-70
2023/05/23 11:27:19;;;;;;;1999.90;999.90;;;10.00;99.90;;;;;;5087806;28;20055;-69
2023/05/23 11:30:08;;;;;;;1999.90;999.90;;;9.90;99.90;;;;;;5088589;28;20118;-69
2023/05/23 11:32:36;;;;;;;1999.90;999.90;;;9.90;99.90;;;;;;5093834;28;20185;-69
2023/05/23 11:35:11;;;;;;;1999.90;999.90;;;9.80;99.90;;;;;;5081247;28;20032;-70
2023/05/23 11:37:39;;;;;;;1999.90;999.90;;;9.80;99.90;;;;;;5092892;28;20048;-70
2023/05/23 11:40:44;;;;;;;1999.90;999.90;;;9.70;99.90;;;;;;5079253;28;20525;-70
2023/05/23 11:43:14;;;;;;;1999.90;999.90;;;9.60;99.90;;;;;;5090697;28;20047;-70
2023/05/23 11:45:48;;;;;;;1999.90;999.90;;;9.60;99.90;;;;;;5085809;28;20032;-69
2023/05/23 11:48:16;;;;;;;1999.90;999.90;;;9.50;99.90;;;;;;5097456;28;20027;-70
2023/05/23 11:50:52;;;;;;;1999.90;999.90;;;9.50;99.90;;;;;;5091772;28;20035;-70
2023/05/23 11:53:21;;;;;;;1999.90;999.90;;;9.40;99.90;;;;;;5098101;28;20039;-71
2023/05/23 11:55:54;;;;;;;1999.90;999.90;;;9.30;99.90;;;;;;5093405;28;20047;-73
2023/05/23 11:58:26;;;;;;;1999.90;999.90;;;9.20;99.90;;;;;;5088092;28;20119;-71
2023/05/23 12:01:03;;;;;;;1999.90;999.90;;;9.10;99.90;;;;;;5088044;28;20043;-71
2023/05/23 12:03:31;;;;;;;1999.90;999.90;;;9.00;99.90;;;;;;5094703;28;20024;-71
2023/05/23 12:06:03;;;;;;;1999.90;999.90;;;8.90;99.90;;;;;;5086982;28;20081;-71
2023/05/23 12:08:31;;;;;;;1999.90;999.90;;;8.90;99.90;;;;;;5093000;28;20081;-70
2023/05/23 12:11:00;;;;;;;1999.90;999.90;;;8.90;99.90;;;;;;5092101;28;20035;-70
2023/05/23 12:13:31;;;;;;;1999.90;999.90;;;8.90;99.90;;;;;;5097802;28;20031;-69